createdAt,value
2018-10-16T00:01:31.133Z,14.20
2018-10-16T00:04:05.226Z,14.10
2018-10-16T00:06:39.968Z,14.20
2018-10-16T00:09:14.790Z,14.10
2018-10-16T00:11:48.873Z,14.10
2018-10-16T00:14:23.692Z,14.10
2018-10-16T00:16:58.425Z,14.10
2018-10-16T00:19:32.308Z,14.10
2018-10-16T00:22:06.330Z,14.00
2018-10-16T00:24:41.080Z,13.90
2018-10-16T00:27:15.027Z,13.90
2018-10-16T00:29:49.090Z,13.80
2018-10-16T00:32:23.079Z,13.70
2018-10-16T00:34:57.191Z,13.60
2018-10-16T00:37:31.993Z,12.70
2018-10-16T00:40:05.860Z,12.70
2018-10-16T00:42:39.860Z,12.50
2018-10-16T00:45:13.885Z,12.80
2018-10-16T00:47:47.865Z,13.00
2018-10-16T00:50:21.937Z,13.10
2018-10-16T00:52:55.996Z,13.10
2018-10-16T00:55:30.058Z,13.30
2018-10-16T00:58:04.190Z,13.30
2018-10-16T01:00:38.120Z,13.20
2018-10-16T01:03:12.153Z,13.30
2018-10-16T01:05:46.176Z,13.20
2018-10-16T01:08:20.185Z,13.40
2018-10-16T01:10:54.280Z,13.40
2018-10-16T01:13:28.414Z,13.40
2018-10-16T01:16:03.271Z,13.40
2018-10-16T01:18:37.374Z,13.40
2018-10-16T01:21:11.438Z,13.10
2018-10-16T01:23:45.457Z,13.10
2018-10-16T01:26:19.368Z,13.10
2018-10-16T01:28:53.336Z,12.90
2018-10-16T01:31:27.390Z,13.00
2018-10-16T01:34:02.206Z,13.00
2018-10-16T01:36:36.051Z,13.00
2018-10-16T01:39:10.061Z,13.00
2018-10-16T01:41:44.111Z,12.90
2018-10-16T01:44:18.173Z,13.00
2018-10-16T01:46:52.237Z,13.00
2018-10-16T01:49:26.300Z,13.10
2018-10-16T01:52:00.389Z,13.00
2018-10-16T01:54:35.254Z,12.60
2018-10-16T01:57:09.158Z,12.60
2018-10-16T01:59:43.254Z,12.40
2018-10-16T02:02:17.378Z,12.50
2018-10-16T02:04:51.385Z,12.60
2018-10-16T02:07:25.477Z,12.60
2018-10-16T02:09:59.541Z,12.40
2018-10-16T02:12:33.560Z,12.40
2018-10-16T02:15:07.651Z,12.50
2018-10-16T02:17:42.476Z,12.50
2018-10-16T02:20:16.452Z,12.50
2018-10-16T02:22:50.499Z,12.40
2018-10-16T02:25:24.534Z,12.50
2018-10-16T02:27:58.549Z,12.50
2018-10-16T02:30:32.637Z,12.60
2018-10-16T02:33:07.518Z,12.50
2018-10-16T02:35:41.394Z,12.50
2018-10-16T02:38:15.477Z,12.50
2018-10-16T02:40:49.525Z,12.50
2018-10-16T02:43:23.536Z,12.60
2018-10-16T02:45:57.618Z,12.50
2018-10-16T02:48:32.358Z,12.60
2018-10-16T02:51:06.329Z,12.60
2018-10-16T02:53:40.340Z,12.60
2018-10-16T02:56:14.465Z,12.60
2018-10-16T02:58:49.265Z,12.60
2018-10-16T03:01:23.277Z,12.60
2018-10-16T03:03:58.120Z,12.40
2018-10-16T03:06:32.241Z,12.40
2018-10-16T03:09:06.286Z,12.50
2018-10-16T03:11:40.326Z,12.60
2018-10-16T03:14:14.361Z,12.70
2018-10-16T03:16:48.361Z,12.80
2018-10-16T03:19:22.381Z,12.50
2018-10-16T03:21:56.488Z,12.30
2018-10-16T03:24:31.247Z,12.30
2018-10-16T03:27:05.113Z,12.30
2018-10-16T03:29:39.149Z,12.30
2018-10-16T03:32:13.157Z,12.30
2018-10-16T03:34:47.110Z,12.30
2018-10-16T03:37:21.236Z,12.30
2018-10-16T03:39:55.195Z,12.30
2018-10-16T03:42:29.308Z,12.20
2018-10-16T03:45:03.357Z,11.90
2018-10-16T03:47:37.436Z,12.00
2018-10-16T03:50:11.472Z,12.00
2018-10-16T03:52:45.563Z,12.20
2018-10-16T03:55:19.577Z,12.20
2018-10-16T03:57:54.423Z,12.00
2018-10-16T04:00:28.428Z,12.00
2018-10-16T04:03:02.423Z,12.10
2018-10-16T04:05:36.432Z,12.20
2018-10-16T04:08:11.269Z,12.00
2018-10-16T04:10:45.132Z,12.00
2018-10-16T04:13:19.184Z,12.00
2018-10-16T04:15:53.228Z,12.00
2018-10-16T04:18:27.096Z,12.00
2018-10-16T04:21:01.106Z,12.10
2018-10-16T04:23:35.142Z,12.10
2018-10-16T04:26:09.248Z,12.00
2018-10-16T04:28:43.301Z,11.80
2018-10-16T04:31:17.367Z,11.60
2018-10-16T04:33:51.341Z,11.60
2018-10-16T04:36:25.398Z,11.70
2018-10-16T04:38:59.401Z,11.80
2018-10-16T04:41:33.569Z,11.80
2018-10-16T04:44:07.647Z,11.50
2018-10-16T04:46:41.806Z,11.00
2018-10-16T04:49:15.754Z,11.00
2018-10-16T04:51:49.889Z,11.10
2018-10-16T04:54:32.937Z,11.10
2018-10-16T04:57:06.953Z,11.30
2018-10-16T04:59:40.933Z,11.50
2018-10-16T05:02:14.944Z,11.40
2018-10-16T05:04:49.073Z,11.40
2018-10-16T05:07:23.912Z,11.20
2018-10-16T05:09:58.029Z,11.20
2018-10-16T05:12:32.120Z,11.20
2018-10-16T05:15:06.153Z,11.20
2018-10-16T05:17:40.135Z,11.30
2018-10-16T05:20:14.299Z,11.40
2018-10-16T05:22:48.361Z,11.40
2018-10-16T05:25:22.465Z,11.50
2018-10-16T05:27:56.581Z,11.50
2018-10-16T05:30:30.705Z,11.60
2018-10-16T05:33:04.811Z,11.70
2018-10-16T05:35:39.666Z,11.50
2018-10-16T05:38:13.841Z,11.40
2018-10-16T05:40:49.088Z,11.20
2018-10-16T05:43:23.868Z,11.50
2018-10-16T05:45:57.961Z,11.50
2018-10-16T05:48:31.974Z,11.60
2018-10-16T05:51:06.070Z,11.60
2018-10-16T05:53:40.080Z,11.70
2018-10-16T05:56:14.189Z,11.60
2018-10-16T05:58:49.057Z,11.60
2018-10-16T06:01:23.960Z,11.60
2018-10-16T06:03:57.866Z,11.60
2018-10-16T06:06:31.880Z,11.70
2018-10-16T06:09:05.953Z,11.60
2018-10-16T06:11:40.092Z,11.50
2018-10-16T06:14:14.176Z,11.60
2018-10-16T06:16:48.224Z,11.30
2018-10-16T06:19:22.305Z,11.30
2018-10-16T06:21:56.363Z,11.40
2018-10-16T06:24:30.526Z,10.80
2018-10-16T06:27:04.518Z,11.30
2018-10-16T06:29:38.370Z,11.50
2018-10-16T06:32:12.402Z,11.50
2018-10-16T06:34:46.496Z,11.20
2018-10-16T06:37:20.524Z,11.30
2018-10-16T06:39:54.601Z,11.30
2018-10-16T06:42:28.481Z,11.10
2018-10-16T06:45:02.507Z,11.10
2018-10-16T06:47:36.616Z,11.20
2018-10-16T06:50:10.564Z,11.00
2018-10-16T06:52:44.604Z,10.90
2018-10-16T06:55:19.406Z,10.70
2018-10-16T06:57:54.025Z,10.90
2018-10-16T07:00:27.949Z,10.90
2018-10-16T07:03:01.969Z,11.10
2018-10-16T07:05:35.896Z,11.20
2018-10-16T07:08:09.967Z,11.30
2018-10-16T07:10:44.009Z,11.40
2018-10-16T07:13:17.969Z,11.40
2018-10-16T07:15:51.982Z,11.50
2018-10-16T07:18:25.998Z,11.40
2018-10-16T07:21:00.159Z,11.40
2018-10-16T07:23:34.335Z,11.30
2018-10-16T07:26:08.385Z,11.50
2018-10-16T07:28:42.402Z,11.50
2018-10-16T07:31:16.433Z,11.70
2018-10-16T07:33:50.610Z,11.70
2018-10-16T07:36:24.713Z,11.80
2018-10-16T07:38:58.892Z,12.10
2018-10-16T07:41:32.875Z,12.10
2018-10-16T07:44:06.971Z,12.20
2018-10-16T07:46:41.067Z,12.30
2018-10-16T07:49:15.735Z,12.40
2018-10-16T07:51:49.887Z,12.40
2018-10-16T07:54:23.951Z,12.60
2018-10-16T07:56:57.949Z,12.70
2018-10-16T07:59:31.990Z,12.80
2018-10-16T08:02:05.959Z,12.90
2018-10-16T08:04:39.962Z,12.90
2018-10-16T08:07:14.069Z,13.10
2018-10-16T08:09:48.214Z,12.90
2018-10-16T08:12:22.252Z,13.00
2018-10-16T08:14:56.364Z,13.10
2018-10-16T08:17:30.456Z,13.20
2018-10-16T08:20:04.590Z,13.40
2018-10-16T08:22:39.415Z,13.50
2018-10-16T08:25:13.517Z,13.50
2018-10-16T08:27:47.642Z,13.50
2018-10-16T08:30:21.826Z,13.50
2018-10-16T08:32:55.858Z,13.60
2018-10-16T08:35:29.966Z,13.70
2018-10-16T08:38:04.101Z,13.60
2018-10-16T08:40:38.112Z,13.70
2018-10-16T08:46:52.956Z,14.00
2018-10-16T08:52:34.749Z,14.40
2018-10-16T08:55:08.805Z,14.30
2018-10-16T08:57:42.874Z,14.40
2018-10-16T09:00:16.939Z,14.50
2018-10-16T09:02:51.002Z,14.60
2018-10-16T09:05:25.015Z,14.80
2018-10-16T09:07:59.850Z,14.80
2018-10-16T09:10:34.488Z,15.00
2018-10-16T09:13:08.395Z,15.00
2018-10-16T09:15:42.375Z,15.00
2018-10-16T09:18:16.409Z,15.20
2018-10-16T09:20:50.510Z,15.30
2018-10-16T09:23:24.587Z,15.40
2018-10-16T09:25:58.694Z,15.50
2018-10-16T09:28:32.734Z,15.70
2018-10-16T09:31:06.729Z,15.60
2018-10-16T09:33:41.405Z,15.80
2018-10-16T09:36:15.378Z,15.80
2018-10-16T09:38:49.457Z,16.00
2018-10-16T09:41:23.488Z,16.10
2018-10-16T09:43:57.589Z,16.20
2018-10-16T09:46:31.725Z,16.30
2018-10-16T09:49:05.931Z,16.50
2018-10-16T09:51:39.986Z,16.40
2018-10-16T09:54:14.056Z,16.60
2018-10-16T09:56:48.073Z,16.60
2018-10-16T09:59:22.100Z,17.00
2018-10-16T10:01:56.918Z,17.20
2018-10-16T10:04:31.001Z,17.20
2018-10-16T10:07:05.133Z,17.30
2018-10-16T10:09:39.257Z,17.40
2018-10-16T10:12:14.085Z,17.70
2018-10-16T10:14:48.167Z,17.70
2018-10-16T10:17:22.307Z,17.70
2018-10-16T10:19:56.362Z,18.00
2018-10-16T10:22:30.502Z,18.00
2018-10-16T10:25:04.580Z,18.20
2018-10-16T10:27:38.573Z,18.10
2018-10-16T10:30:12.602Z,18.30
2018-10-16T10:32:46.684Z,18.40
2018-10-16T10:35:20.799Z,18.70
2018-10-16T10:37:54.886Z,18.70
2018-10-16T10:40:28.947Z,18.80
2018-10-16T10:43:03.010Z,18.90
2018-10-16T10:45:37.150Z,18.80
2018-10-16T10:48:11.233Z,19.00
2018-10-16T10:50:45.521Z,19.00
2018-10-16T10:53:19.442Z,19.00
2018-10-16T10:55:53.576Z,19.20
2018-10-16T10:58:27.577Z,19.40
2018-10-16T11:01:01.707Z,19.50
2018-10-16T11:03:36.630Z,19.90
2018-10-16T11:06:10.608Z,19.90
2018-10-16T11:08:44.650Z,19.90
2018-10-16T11:11:18.761Z,19.80
2018-10-16T11:13:52.885Z,20.10
2018-10-16T11:16:26.927Z,20.10
2018-10-16T11:19:01.013Z,20.30
2018-10-16T11:21:35.092Z,20.30
2018-10-16T11:24:09.225Z,20.20
2018-10-16T11:26:43.280Z,20.20
2018-10-16T11:29:17.345Z,20.40
2018-10-16T11:31:51.464Z,20.30
2018-10-16T11:34:25.619Z,20.40
2018-10-16T11:36:59.711Z,20.40
2018-10-16T11:39:34.479Z,20.80
2018-10-16T11:42:08.532Z,20.80
2018-10-16T11:44:42.433Z,20.90
2018-10-16T11:47:17.288Z,20.90
2018-10-16T11:49:52.200Z,21.20
2018-10-16T11:52:26.262Z,21.20
2018-10-16T11:55:00.350Z,21.40
2018-10-16T11:57:34.488Z,21.60
2018-10-16T12:00:08.602Z,21.60
2018-10-16T12:02:42.695Z,21.60
2018-10-16T12:05:17.501Z,21.90
2018-10-16T12:07:51.558Z,21.90
2018-10-16T12:10:25.617Z,22.00
2018-10-16T12:12:59.767Z,22.00
2018-10-16T12:15:34.581Z,22.00
2018-10-16T12:18:08.547Z,22.00
2018-10-16T12:20:43.402Z,21.80
2018-10-16T12:23:17.304Z,21.80
2018-10-16T12:25:51.345Z,22.10
2018-10-16T12:28:26.214Z,22.20
2018-10-16T12:31:00.385Z,22.30
2018-10-16T12:33:34.382Z,22.50
2018-10-16T12:36:08.500Z,22.30
2018-10-16T12:38:42.408Z,22.20
2018-10-16T12:41:16.461Z,22.50
2018-10-16T12:43:52.385Z,22.60
2018-10-16T12:46:27.289Z,22.50
2018-10-16T12:49:01.850Z,22.60
2018-10-16T12:51:36.654Z,22.80
2018-10-16T12:54:10.625Z,22.80
2018-10-16T12:56:44.679Z,22.70
2018-10-16T12:59:19.253Z,22.60
2018-10-16T13:01:54.078Z,22.80
2018-10-16T13:04:27.936Z,22.80
2018-10-16T13:07:01.951Z,23.10
2018-10-16T13:09:37.356Z,23.10
2018-10-16T13:12:12.395Z,23.00
2018-10-16T13:14:46.307Z,22.90
2018-10-16T13:17:20.384Z,22.90
2018-10-16T13:19:55.209Z,23.00
2018-10-16T13:22:29.044Z,23.00
2018-10-16T13:25:03.091Z,23.20
2018-10-16T13:27:37.286Z,23.40
2018-10-16T13:30:11.213Z,23.60
2018-10-16T13:32:46.138Z,23.50
2018-10-16T13:35:20.882Z,23.50
2018-10-16T13:37:54.847Z,23.50
2018-10-16T13:40:29.151Z,23.60
2018-10-16T13:43:03.118Z,23.40
2018-10-16T13:45:37.651Z,23.50
2018-10-16T13:48:12.275Z,23.60
2018-10-16T13:50:47.568Z,23.50
2018-10-16T13:53:21.928Z,23.50
2018-10-16T13:55:56.006Z,23.40
2018-10-16T13:58:30.030Z,23.50
2018-10-16T14:01:04.365Z,23.60
2018-10-16T14:03:38.721Z,23.50
2018-10-16T14:06:12.859Z,23.50
2018-10-16T14:08:47.280Z,23.60
2018-10-16T14:11:21.949Z,23.60
2018-10-16T14:13:56.326Z,23.60
2018-10-16T14:16:30.245Z,23.60
2018-10-16T14:19:04.168Z,23.80
2018-10-16T14:21:38.177Z,23.60
2018-10-16T14:24:12.194Z,23.70
2018-10-16T14:26:46.227Z,23.70
2018-10-16T14:29:20.328Z,23.50
2018-10-16T14:31:54.484Z,23.70
2018-10-16T14:34:28.613Z,23.90
2018-10-16T14:37:02.606Z,23.90
2018-10-16T14:39:36.597Z,23.70
2018-10-16T14:42:10.645Z,23.70
2018-10-16T14:44:52.576Z,23.70
2018-10-16T14:47:26.580Z,23.70
2018-10-16T14:50:01.354Z,23.50
2018-10-16T14:52:36.073Z,23.60
2018-10-16T14:55:10.201Z,23.50
2018-10-16T14:57:44.229Z,23.40
2018-10-16T15:00:19.018Z,23.50
2018-10-16T15:02:56.421Z,23.50
2018-10-16T15:05:31.137Z,23.60
2018-10-16T15:08:05.054Z,23.50
2018-10-16T15:10:39.084Z,23.70
2018-10-16T15:13:13.179Z,23.60
2018-10-16T15:15:47.273Z,23.50
2018-10-16T15:18:21.381Z,23.50
2018-10-16T15:20:55.401Z,23.50
2018-10-16T15:23:29.446Z,23.60
2018-10-16T15:26:04.357Z,23.40
2018-10-16T15:28:38.974Z,23.40
2018-10-16T15:31:13.915Z,23.40
2018-10-16T15:33:47.820Z,23.10
2018-10-16T15:36:21.832Z,22.90
2018-10-16T15:38:56.593Z,23.00
2018-10-16T15:41:33.766Z,23.00
2018-10-16T15:44:08.930Z,23.10
2018-10-16T15:46:42.889Z,23.10
2018-10-16T15:49:17.556Z,23.10
2018-10-16T15:51:51.680Z,23.10
2018-10-16T15:54:27.487Z,23.00
2018-10-16T15:57:03.365Z,23.00
2018-10-16T15:59:39.500Z,23.00
2018-10-16T16:02:13.472Z,22.90
2018-10-16T16:04:47.405Z,22.80
2018-10-16T16:07:21.429Z,22.70
2018-10-16T16:10:10.080Z,22.60
2018-10-16T16:12:43.991Z,22.40
2018-10-16T16:15:18.005Z,22.30
2018-10-16T16:17:52.047Z,22.00
2018-10-16T16:20:33.769Z,21.70
2018-10-16T16:23:08.450Z,21.40
2018-10-16T16:25:42.354Z,21.40
2018-10-16T16:28:16.460Z,21.40
2018-10-16T16:30:50.306Z,21.40
2018-10-16T16:33:24.381Z,21.30
2018-10-16T16:35:58.419Z,21.10
2018-10-16T16:38:32.513Z,20.90
2018-10-16T16:41:06.641Z,20.70
2018-10-16T16:43:40.579Z,20.70
2018-10-16T16:46:14.542Z,20.70
2018-10-16T16:48:48.600Z,20.70
2018-10-16T16:51:22.738Z,20.50
2018-10-16T16:53:57.874Z,20.50
2018-10-16T16:56:31.856Z,20.30
2018-10-16T16:59:06.015Z,20.10
2018-10-16T17:01:39.944Z,19.90
2018-10-16T17:04:13.809Z,19.80
2018-10-16T17:06:47.848Z,19.70
2018-10-16T17:09:21.908Z,19.70
2018-10-16T17:11:56.005Z,19.60
2018-10-16T17:14:30.110Z,19.40
2018-10-16T17:17:04.244Z,19.40
2018-10-16T17:19:38.305Z,19.20
2018-10-16T17:22:13.150Z,19.90
2018-10-16T17:24:47.314Z,19.90
2018-10-16T17:27:21.517Z,20.20
2018-10-16T17:29:55.556Z,20.30
2018-10-16T17:32:29.662Z,20.30
2018-10-16T17:35:03.919Z,20.40
2018-10-16T17:37:37.921Z,20.40
2018-10-16T17:40:12.145Z,20.40
2018-10-16T17:42:49.140Z,20.40
2018-10-16T17:45:23.189Z,20.30
2018-10-16T17:47:57.296Z,20.20
2018-10-16T17:50:31.193Z,20.10
2018-10-16T17:53:05.325Z,19.90
2018-10-16T17:55:40.184Z,19.60
2018-10-16T17:58:14.321Z,19.60
2018-10-16T18:00:48.555Z,19.60
2018-10-16T18:03:22.515Z,19.60
2018-10-16T18:05:56.593Z,19.60
2018-10-16T18:08:30.709Z,19.50
2018-10-16T18:11:04.783Z,19.60
2018-10-16T18:13:38.735Z,19.50
2018-10-16T18:16:12.848Z,19.50
2018-10-16T18:18:46.909Z,19.50
2018-10-16T18:21:21.106Z,19.40
2018-10-16T18:23:55.178Z,19.30
2018-10-16T18:26:29.233Z,19.40
2018-10-16T18:29:03.415Z,19.30
2018-10-16T18:31:37.563Z,19.00
2018-10-16T18:34:11.659Z,19.00
2018-10-16T18:36:45.597Z,18.90
2018-10-16T18:39:19.623Z,18.80
2018-10-16T18:41:53.683Z,19.00
2018-10-16T18:44:27.619Z,19.00
2018-10-16T18:47:01.701Z,18.90
2018-10-16T18:49:35.826Z,18.80
2018-10-16T18:52:11.041Z,18.60
2018-10-16T18:54:45.080Z,18.50
2018-10-16T18:57:19.219Z,18.60
2018-10-16T18:59:53.279Z,18.50
2018-10-16T19:02:27.309Z,18.60
2018-10-16T19:05:02.020Z,18.50
2018-10-16T19:07:36.033Z,18.50
2018-10-16T19:10:10.060Z,18.50
2018-10-16T19:12:44.888Z,18.30
2018-10-16T19:15:19.625Z,18.30
2018-10-16T19:17:54.273Z,18.30
2018-10-16T19:20:28.357Z,18.40
2018-10-16T19:23:03.206Z,18.50
2018-10-16T19:25:37.296Z,18.50
2018-10-16T19:28:11.353Z,18.50
2018-10-16T19:30:46.129Z,18.40
2018-10-16T19:33:20.175Z,18.40
2018-10-16T19:35:54.310Z,18.30
2018-10-16T19:38:28.374Z,18.30
2018-10-16T19:41:02.487Z,18.30
2018-10-16T19:43:36.597Z,18.10
2018-10-16T19:46:10.723Z,18.10
2018-10-16T19:48:44.835Z,18.20
2018-10-16T19:51:18.950Z,18.20
2018-10-16T19:53:53.053Z,18.20
2018-10-16T19:56:27.082Z,18.00
2018-10-16T19:59:01.081Z,17.80
2018-10-16T20:01:35.170Z,17.60
2018-10-16T20:04:09.234Z,17.70
2018-10-16T20:06:43.313Z,17.70
2018-10-16T20:09:17.433Z,17.80
2018-10-16T20:11:51.578Z,17.80
2018-10-16T20:14:25.607Z,17.80
2018-10-16T20:16:59.673Z,17.80
2018-10-16T20:19:33.768Z,17.80
2018-10-16T20:22:08.626Z,17.70
2018-10-16T20:24:42.826Z,17.70
2018-10-16T20:27:17.567Z,17.70
2018-10-16T20:29:51.677Z,17.70
2018-10-16T20:32:25.990Z,17.60
2018-10-16T20:35:00.134Z,17.60
2018-10-16T20:37:34.220Z,17.60
2018-10-16T20:40:08.299Z,17.60
2018-10-16T20:42:42.455Z,17.60
2018-10-16T20:45:16.595Z,17.50
2018-10-16T20:47:50.652Z,17.20
2018-10-16T20:50:24.664Z,17.30
2018-10-16T20:52:58.781Z,17.30
2018-10-16T20:55:32.801Z,17.30
2018-10-16T20:58:06.914Z,17.30
2018-10-16T21:00:41.059Z,17.30
2018-10-16T21:03:15.145Z,17.20
2018-10-16T21:05:49.366Z,17.10
2018-10-16T21:08:23.276Z,17.10
2018-10-16T21:10:57.469Z,17.20
2018-10-16T21:13:32.345Z,17.40
2018-10-16T21:16:06.425Z,17.30
2018-10-16T21:18:40.586Z,17.30
2018-10-16T21:21:14.677Z,17.20
2018-10-16T21:23:48.767Z,17.10
2018-10-16T21:26:23.625Z,17.10
2018-10-16T21:28:57.737Z,17.10
2018-10-16T21:31:32.689Z,17.00
2018-10-16T21:34:07.810Z,16.90
2018-10-16T21:36:41.892Z,16.90
2018-10-16T21:39:15.958Z,16.80
2018-10-16T21:41:50.670Z,16.60
2018-10-16T21:44:24.809Z,16.50
2018-10-16T21:46:58.907Z,16.40
2018-10-16T21:49:32.955Z,16.40
2018-10-16T21:52:06.910Z,16.30
2018-10-16T21:54:40.989Z,16.50
2018-10-16T21:57:14.965Z,16.70
2018-10-16T21:59:49.073Z,16.80
2018-10-16T22:02:23.050Z,16.90
2018-10-16T22:04:56.977Z,16.80
2018-10-16T22:07:30.985Z,16.80
2018-10-16T22:10:04.985Z,16.80
2018-10-16T22:12:39.061Z,16.60
2018-10-16T22:15:13.062Z,16.60
2018-10-16T22:17:47.100Z,16.70
2018-10-16T22:20:21.238Z,16.60
2018-10-16T22:22:55.291Z,16.60
2018-10-16T22:25:29.961Z,16.40
2018-10-16T22:28:04.092Z,16.40
2018-10-16T22:30:38.212Z,16.40
2018-10-16T22:33:12.390Z,16.10
2018-10-16T22:35:46.521Z,16.00
2018-10-16T22:38:20.626Z,15.90
2018-10-16T22:40:54.723Z,15.90
2018-10-16T22:43:28.865Z,15.90
2018-10-16T22:46:03.001Z,15.80
2018-10-16T22:48:37.088Z,15.90
2018-10-16T22:51:11.244Z,15.80
2018-10-16T22:53:45.134Z,15.90
2018-10-16T22:56:19.201Z,15.90
2018-10-16T22:58:53.415Z,15.80
2018-10-16T23:01:27.321Z,15.80
2018-10-16T23:04:02.199Z,15.70
2018-10-16T23:06:36.427Z,15.70
2018-10-16T23:09:10.480Z,15.70
2018-10-16T23:11:44.616Z,15.90
2018-10-16T23:14:18.706Z,15.70
2018-10-16T23:16:52.835Z,15.60
2018-10-16T23:19:26.889Z,15.70
2018-10-16T23:22:00.973Z,15.70
2018-10-16T23:24:35.069Z,15.80
2018-10-16T23:27:09.188Z,16.00
2018-10-16T23:29:43.301Z,15.80
2018-10-16T23:32:17.342Z,15.70
2018-10-16T23:34:51.440Z,15.70
2018-10-16T23:37:25.547Z,15.60
2018-10-16T23:39:59.713Z,15.60
2018-10-16T23:42:33.828Z,15.50
2018-10-16T23:45:07.969Z,15.40
2018-10-16T23:47:42.048Z,15.20
2018-10-16T23:50:16.121Z,15.20
2018-10-16T23:52:50.205Z,15.30
2018-10-16T23:55:24.349Z,15.40
2018-10-16T23:57:58.388Z,15.20
